sensor_id;sensor_type;location;lat;lon;timestamp;pressure;altitude;pressure_sealevel;temperature;humidity
17362;BME280;8798;51.938;4.348;2022-10-14T00:00:42;101687.75;;;15.05;75.48
17362;BME280;8798;51.938;4.348;2022-10-14T00:03:12;101686.22;;;15.02;75.61
17362;BME280;8798;51.938;4.348;2022-10-14T00:05:44;101663.88;;;15.00;75.53
17362;BME280;8798;51.938;4.348;2022-10-14T00:08:14;101665.72;;;15.00;75.59
17362;BME280;8798;51.938;4.348;2022-10-14T00:10:44;101664.88;;;14.99;75.48
17362;BME280;8798;51.938;4.348;2022-10-14T00:13:16;101662.31;;;14.98;75.82
17362;BME280;8798;51.938;4.348;2022-10-14T00:15:47;101650.66;;;14.97;75.82
17362;BME280;8798;51.938;4.348;2022-10-14T00:18:16;101651.50;;;14.98;75.71
17362;BME280;8798;51.938;4.348;2022-10-14T00:20:53;101639.16;;;14.95;76.06
17362;BME280;8798;51.938;4.348;2022-10-14T00:23:26;101630.19;;;14.95;75.84
17362;BME280;8798;51.938;4.348;2022-10-14T00:25:54;101632.06;;;14.94;76.06
17362;BME280;8798;51.938;4.348;2022-10-14T00:28:24;101628.50;;;14.94;76.20
17362;BME280;8798;51.938;4.348;2022-10-14T00:30:54;101629.34;;;14.94;76.13
17362;BME280;8798;51.938;4.348;2022-10-14T00:33:24;101635.59;;;14.95;76.15
17362;BME280;8798;51.938;4.348;2022-10-14T00:35:54;101631.88;;;14.96;76.25
17362;BME280;8798;51.938;4.348;2022-10-14T00:38:24;101641.53;;;14.98;76.40
17362;BME280;8798;51.938;4.348;2022-10-14T00:40:55;101643.25;;;14.99;76.28
17362;BME280;8798;51.938;4.348;2022-10-14T00:43:26;101647.63;;;15.00;76.34
17362;BME280;8798;51.938;4.348;2022-10-14T00:45:55;101651.03;;;15.02;76.42
17362;BME280;8798;51.938;4.348;2022-10-14T00:48:24;101651.72;;;15.04;76.55
17362;BME280;8798;51.938;4.348;2022-10-14T00:50:55;101666.78;;;15.07;76.65
17362;BME280;8798;51.938;4.348;2022-10-14T00:53:24;101666.63;;;15.09;76.64
17362;BME280;8798;51.938;4.348;2022-10-14T00:55:52;101682.53;;;15.12;76.69
17362;BME280;8798;51.938;4.348;2022-10-14T00:58:22;101689.50;;;15.14;76.71
17362;BME280;8798;51.938;4.348;2022-10-14T01:00:54;101697.28;;;15.17;76.55
17362;BME280;8798;51.938;4.348;2022-10-14T01:03:23;101701.72;;;15.18;76.75
17362;BME280;8798;51.938;4.348;2022-10-14T01:05:56;101705.06;;;15.20;76.71
17362;BME280;8798;51.938;4.348;2022-10-14T01:08:34;101711.19;;;15.22;76.72
17362;BME280;8798;51.938;4.348;2022-10-14T01:11:16;101719.84;;;15.26;76.95
17362;BME280;8798;51.938;4.348;2022-10-14T01:14:05;101732.91;;;15.31;76.80
17362;BME280;8798;51.938;4.348;2022-10-14T01:16:46;101739.84;;;15.33;76.87
17362;BME280;8798;51.938;4.348;2022-10-14T01:19:39;101740.50;;;15.35;77.02
17362;BME280;8798;51.938;4.348;2022-10-14T01:22:21;101748.50;;;15.37;76.91
17362;BME280;8798;51.938;4.348;2022-10-14T01:25:07;101754.41;;;15.40;77.10
17362;BME280;8798;51.938;4.348;2022-10-14T01:27:57;101755.28;;;15.41;76.96
17362;BME280;8798;51.938;4.348;2022-10-14T01:30:40;101756.13;;;15.41;77.01
17362;BME280;8798;51.938;4.348;2022-10-14T01:33:15;101752.41;;;15.42;77.34
17362;BME280;8798;51.938;4.348;2022-10-14T01:35:55;101753.25;;;15.43;77.13
17362;BME280;8798;51.938;4.348;2022-10-14T01:38:35;101756.66;;;15.45;77.23
17362;BME280;8798;51.938;4.348;2022-10-14T01:41:07;101759.19;;;15.46;77.02
17362;BME280;8798;51.938;4.348;2022-10-14T01:43:44;101753.78;;;15.46;77.26
17362;BME280;8798;51.938;4.348;2022-10-14T01:46:16;101762.59;;;15.48;77.13
17362;BME280;8798;51.938;4.348;2022-10-14T01:48:57;101757.88;;;15.51;77.17
17362;BME280;8798;51.938;4.348;2022-10-14T01:51:38;101745.50;;;15.48;77.56
17362;BME280;8798;51.938;4.348;2022-10-14T01:54:14;101745.50;;;15.48;77.28
17362;BME280;8798;51.938;4.348;2022-10-14T01:56:44;101726.72;;;15.46;77.23
17362;BME280;8798;51.938;4.348;2022-10-14T01:59:16;101726.72;;;15.46;77.34
17362;BME280;8798;51.938;4.348;2022-10-14T02:01:54;101718.59;;;15.46;77.64
17362;BME280;8798;51.938;4.348;2022-10-14T02:04:28;101717.75;;;15.46;77.43
17362;BME280;8798;51.938;4.348;2022-10-14T02:07:06;101702.50;;;15.45;77.46
17362;BME280;8798;51.938;4.348;2022-10-14T02:09:47;101710.47;;;15.46;77.33
17362;BME280;8798;51.938;4.348;2022-10-14T02:12:32;101705.88;;;15.47;77.46
17362;BME280;8798;51.938;4.348;2022-10-14T02:15:12;101699.63;;;15.46;77.42
17362;BME280;8798;51.938;4.348;2022-10-14T02:17:59;101694.22;;;15.46;77.50
17362;BME280;8798;51.938;4.348;2022-10-14T02:20:36;101683.53;;;15.45;77.38
17362;BME280;8798;51.938;4.348;2022-10-14T02:23:15;101675.41;;;15.45;77.58
17362;BME280;8798;51.938;4.348;2022-10-14T02:25:54;101675.41;;;15.45;77.65
17362;BME280;8798;51.938;4.348;2022-10-14T02:28:26;101669.16;;;15.44;77.69
17362;BME280;8798;51.938;4.348;2022-10-14T02:31:07;101656.63;;;15.43;77.65
17362;BME280;8798;51.938;4.348;2022-10-14T02:33:50;101655.75;;;15.43;77.57
17362;BME280;8798;51.938;4.348;2022-10-14T02:36:24;101655.63;;;15.44;77.85
17362;BME280;8798;51.938;4.348;2022-10-14T02:38:57;101654.63;;;15.45;77.87
17362;BME280;8798;51.938;4.348;2022-10-14T02:41:36;101655.47;;;15.46;77.87
17362;BME280;8798;51.938;4.348;2022-10-14T02:44:05;101661.72;;;15.46;77.84
17362;BME280;8798;51.938;4.348;2022-10-14T02:46:34;101659.69;;;15.48;77.92
17362;BME280;8798;51.938;4.348;2022-10-14T02:49:05;101656.16;;;15.48;77.80
17362;BME280;8798;51.938;4.348;2022-10-14T02:51:35;101650.56;;;15.49;77.97
17362;BME280;8798;51.938;4.348;2022-10-14T02:54:04;101651.41;;;15.50;78.01
17362;BME280;8798;51.938;4.348;2022-10-14T02:56:35;101654.78;;;15.52;77.96
17362;BME280;8798;51.938;4.348;2022-10-14T02:59:06;101658.34;;;15.53;78.23
17362;BME280;8798;51.938;4.348;2022-10-14T03:01:34;101651.09;;;15.53;78.14
17362;BME280;8798;51.938;4.348;2022-10-14T03:04:06;101646.50;;;15.54;78.04
17362;BME280;8798;51.938;4.348;2022-10-14T03:06:35;101641.09;;;15.54;78.12
17362;BME280;8798;51.938;4.348;2022-10-14T03:09:05;101643.63;;;15.55;78.25
17362;BME280;8798;51.938;4.348;2022-10-14T03:11:33;101647.19;;;15.56;78.27
17362;BME280;8798;51.938;4.348;2022-10-14T03:14:04;101655.00;;;15.59;78.32
17362;BME280;8798;51.938;4.348;2022-10-14T03:16:35;101643.31;;;15.58;78.28
17362;BME280;8798;51.938;4.348;2022-10-14T03:19:06;101652.28;;;15.59;78.35
17362;BME280;8798;51.938;4.348;2022-10-14T03:21:34;101645.00;;;15.59;78.27
17362;BME280;8798;51.938;4.348;2022-10-14T03:24:05;101650.25;;;15.61;78.36
17362;BME280;8798;51.938;4.348;2022-10-14T03:26:36;101647.38;;;15.62;78.36
17362;BME280;8798;51.938;4.348;2022-10-14T03:29:14;101647.22;;;15.64;78.31
17362;BME280;8798;51.938;4.348;2022-10-14T03:31:44;101645.34;;;15.64;78.39
17362;BME280;8798;51.938;4.348;2022-10-14T03:34:17;101645.34;;;15.64;78.56
17362;BME280;8798;51.938;4.348;2022-10-14T03:36:48;101646.88;;;15.67;78.42
17362;BME280;8798;51.938;4.348;2022-10-14T03:39:24;101641.47;;;15.67;78.44
17362;BME280;8798;51.938;4.348;2022-10-14T03:41:56;101639.78;;;15.66;78.78
17362;BME280;8798;51.938;4.348;2022-10-14T03:44:24;101628.94;;;15.66;78.59
17362;BME280;8798;51.938;4.348;2022-10-14T03:46:54;101627.91;;;15.67;78.34
17362;BME280;8798;51.938;4.348;2022-10-14T03:49:26;101618.09;;;15.66;78.68
17362;BME280;8798;51.938;4.348;2022-10-14T03:51:55;101617.06;;;15.67;78.60
17362;BME280;8798;51.938;4.348;2022-10-14T03:54:24;101617.06;;;15.67;78.57
17362;BME280;8798;51.938;4.348;2022-10-14T03:56:55;101606.25;;;15.67;78.50
17362;BME280;8798;51.938;4.348;2022-10-14T03:59:25;101600.81;;;15.67;78.71
17362;BME280;8798;51.938;4.348;2022-10-14T04:01:55;101591.03;;;15.66;78.74
17362;BME280;8798;51.938;4.348;2022-10-14T04:04:25;101586.59;;;15.65;78.64
17362;BME280;8798;51.938;4.348;2022-10-14T04:06:55;101575.94;;;15.63;78.96
17362;BME280;8798;51.938;4.348;2022-10-14T04:09:25;101570.34;;;15.65;78.75
17362;BME280;8798;51.938;4.348;2022-10-14T04:11:57;101574.91;;;15.64;78.90
17362;BME280;8798;51.938;4.348;2022-10-14T04:14:26;101559.69;;;15.63;78.79
17362;BME280;8798;51.938;4.348;2022-10-14T04:16:54;101553.25;;;15.64;79.05
17362;BME280;8798;51.938;4.348;2022-10-14T04:19:26;101564.78;;;15.66;78.56
17362;BME280;8798;51.938;4.348;2022-10-14T04:21:56;101570.03;;;15.68;78.85
17362;BME280;8798;51.938;4.348;2022-10-14T04:24:27;101563.75;;;15.67;78.98
17362;BME280;8798;51.938;4.348;2022-10-14T04:26:58;101568.16;;;15.68;79.04
17362;BME280;8798;51.938;4.348;2022-10-14T04:29:36;101561.75;;;15.69;78.89
17362;BME280;8798;51.938;4.348;2022-10-14T04:32:05;101546.66;;;15.67;78.93
17362;BME280;8798;51.938;4.348;2022-10-14T04:34:37;101540.41;;;15.66;78.88
17362;BME280;8798;51.938;4.348;2022-10-14T04:37:05;101540.41;;;15.66;79.05
17362;BME280;8798;51.938;4.348;2022-10-14T04:39:33;101527.00;;;15.65;78.99
17362;BME280;8798;51.938;4.348;2022-10-14T04:42:05;101531.59;;;15.64;79.05
17362;BME280;8798;51.938;4.348;2022-10-14T04:44:35;101531.44;;;15.66;79.17
17362;BME280;8798;51.938;4.348;2022-10-14T04:47:05;101527.69;;;15.67;79.42
17362;BME280;8798;51.938;4.348;2022-10-14T04:49:34;101516.84;;;15.67;79.29
17362;BME280;8798;51.938;4.348;2022-10-14T04:52:05;101527.53;;;15.68;79.35
17362;BME280;8798;51.938;4.348;2022-10-14T04:54:33;101514.16;;;15.67;79.21
17362;BME280;8798;51.938;4.348;2022-10-14T04:57:06;101509.75;;;15.66;79.10
17362;BME280;8798;51.938;4.348;2022-10-14T04:59:44;101502.47;;;15.66;79.45
17362;BME280;8798;51.938;4.348;2022-10-14T05:02:16;101490.13;;;15.64;79.14
17362;BME280;8798;51.938;4.348;2022-10-14T05:04:44;101487.41;;;15.64;79.52
17362;BME280;8798;51.938;4.348;2022-10-14T05:07:15;101490.13;;;15.64;79.33
17362;BME280;8798;51.938;4.348;2022-10-14T05:09:44;101485.53;;;15.64;79.34
17362;BME280;8798;51.938;4.348;2022-10-14T05:12:18;101480.97;;;15.65;79.58
17362;BME280;8798;51.938;4.348;2022-10-14T05:14:54;101458.81;;;15.61;79.44
17362;BME280;8798;51.938;4.348;2022-10-14T05:17:24;101454.56;;;15.59;79.62
17362;BME280;8798;51.938;4.348;2022-10-14T05:19:55;101443.72;;;15.59;79.59
17362;BME280;8798;51.938;4.348;2022-10-14T05:22:27;101445.41;;;15.60;79.50
17362;BME280;8798;51.938;4.348;2022-10-14T05:24:55;101440.00;;;15.60;79.68
17362;BME280;8798;51.938;4.348;2022-10-14T05:27:23;101439.16;;;15.59;79.72
17362;BME280;8798;51.938;4.348;2022-10-14T05:29:55;101432.91;;;15.59;79.90
17362;BME280;8798;51.938;4.348;2022-10-14T05:32:28;101427.50;;;15.59;79.76
17362;BME280;8798;51.938;4.348;2022-10-14T05:35:05;101431.03;;;15.59;79.82
17362;BME280;8798;51.938;4.348;2022-10-14T05:37:36;101426.66;;;15.58;79.94
17362;BME280;8798;51.938;4.348;2022-10-14T05:40:06;101423.75;;;15.60;79.84
17362;BME280;8798;51.938;4.348;2022-10-14T05:42:35;101424.63;;;15.60;80.14
17362;BME280;8798;51.938;4.348;2022-10-14T05:45:03;101426.47;;;15.60;80.34
17362;BME280;8798;51.938;4.348;2022-10-14T05:47:35;101422.75;;;15.61;80.40
17362;BME280;8798;51.938;4.348;2022-10-14T05:50:05;101429.69;;;15.63;80.40
17362;BME280;8798;51.938;4.348;2022-10-14T05:52:37;101427.13;;;15.62;80.76
17362;BME280;8798;51.938;4.348;2022-10-14T05:57:55;101418.34;;;15.60;80.89
17362;BME280;8798;51.938;4.348;2022-10-14T06:00:23;101422.75;;;15.61;80.99
17362;BME280;8798;51.938;4.348;2022-10-14T06:02:56;101412.91;;;15.60;81.09
17362;BME280;8798;51.938;4.348;2022-10-14T06:05:26;101406.66;;;15.59;81.20
17362;BME280;8798;51.938;4.348;2022-10-14T06:07:56;101407.50;;;15.60;81.42
17362;BME280;8798;51.938;4.348;2022-10-14T06:10:26;101397.69;;;15.59;81.41
17362;BME280;8798;51.938;4.348;2022-10-14T06:12:57;101405.47;;;15.62;81.55
17362;BME280;8798;51.938;4.348;2022-10-14T06:15:38;101412.59;;;15.63;81.59
17362;BME280;8798;51.938;4.348;2022-10-14T06:18:13;101416.16;;;15.63;81.63
17362;BME280;8798;51.938;4.348;2022-10-14T06:20:55;101413.25;;;15.65;81.83
17362;BME280;8798;51.938;4.348;2022-10-14T06:23:26;101414.28;;;15.64;81.93
17362;BME280;8798;51.938;4.348;2022-10-14T06:25:57;101405.13;;;15.65;82.06
17362;BME280;8798;51.938;4.348;2022-10-14T06:28:31;101414.97;;;15.66;82.19
17362;BME280;8798;51.938;4.348;2022-10-14T06:31:04;101419.34;;;15.67;82.21
17362;BME280;8798;51.938;4.348;2022-10-14T06:33:33;101425.44;;;15.69;82.28
17362;BME280;8798;51.938;4.348;2022-10-14T06:36:05;101417.31;;;15.69;82.21
17362;BME280;8798;51.938;4.348;2022-10-14T06:38:36;101409.19;;;15.69;82.38
17362;BME280;8798;51.938;4.348;2022-10-14T06:41:05;101413.44;;;15.72;82.38
17362;BME280;8798;51.938;4.348;2022-10-14T06:43:37;101422.41;;;15.72;82.64
17362;BME280;8798;51.938;4.348;2022-10-14T06:46:06;101417.69;;;15.74;82.74
17362;BME280;8798;51.938;4.348;2022-10-14T06:48:36;101426.47;;;15.76;82.54
17362;BME280;8798;51.938;4.348;2022-10-14T06:51:04;101423.78;;;15.76;82.64
17362;BME280;8798;51.938;4.348;2022-10-14T06:53:32;101432.59;;;15.78;82.95
17362;BME280;8798;51.938;4.348;2022-10-14T06:56:05;101439.53;;;15.81;82.94
17362;BME280;8798;51.938;4.348;2022-10-14T06:58:35;101432.22;;;15.81;83.09
17362;BME280;8798;51.938;4.348;2022-10-14T07:01:07;101434.94;;;15.81;83.19
17362;BME280;8798;51.938;4.348;2022-10-14T07:03:35;101440.19;;;15.83;83.10
17362;BME280;8798;51.938;4.348;2022-10-14T07:06:06;101434.59;;;15.84;83.30
17362;BME280;8798;51.938;4.348;2022-10-14T07:08:35;101429.16;;;15.84;83.47
17362;BME280;8798;51.938;4.348;2022-10-14T07:11:08;101431.88;;;15.84;83.10
17362;BME280;8798;51.938;4.348;2022-10-14T07:13:45;101424.59;;;15.85;83.58
17362;BME280;8798;51.938;4.348;2022-10-14T07:16:13;101419.38;;;15.83;83.53
17362;BME280;8798;51.938;4.348;2022-10-14T07:18:43;101418.53;;;15.83;83.57
17362;BME280;8798;51.938;4.348;2022-10-14T07:21:17;101423.59;;;15.86;83.76
17362;BME280;8798;51.938;4.348;2022-10-14T07:23:45;101431.56;;;15.87;83.60
17362;BME280;8798;51.938;4.348;2022-10-14T07:26:18;101422.41;;;15.88;83.85
17362;BME280;8798;51.938;4.348;2022-10-14T07:28:56;101423.91;;;15.91;83.72
17362;BME280;8798;51.938;4.348;2022-10-14T07:31:24;101438.97;;;15.94;83.88
17362;BME280;8798;51.938;4.348;2022-10-14T07:33:55;101432.72;;;15.93;83.82
17362;BME280;8798;51.938;4.348;2022-10-14T07:36:25;101442.53;;;15.94;83.48
17362;BME280;8798;51.938;4.348;2022-10-14T07:38:55;101443.88;;;15.98;84.14
17362;BME280;8798;51.938;4.348;2022-10-14T07:41:28;101458.97;;;16.01;83.89
17362;BME280;8798;51.938;4.348;2022-10-14T07:44:07;101469.44;;;16.04;84.03
17362;BME280;8798;51.938;4.348;2022-10-14T07:46:38;101473.53;;;16.08;83.98
17362;BME280;8798;51.938;4.348;2022-10-14T07:49:17;101474.19;;;16.10;84.14
17362;BME280;8798;51.938;4.348;2022-10-14T07:51:46;101477.56;;;16.12;84.30
17362;BME280;8798;51.938;4.348;2022-10-14T07:54:17;101479.25;;;16.13;84.38
17362;BME280;8798;51.938;4.348;2022-10-14T07:56:57;101465.88;;;16.11;84.40
17362;BME280;8798;51.938;4.348;2022-10-14T07:59:25;101473.16;;;16.11;84.77
17362;BME280;8798;51.938;4.348;2022-10-14T08:01:55;101466.56;;;16.13;84.48
17362;BME280;8798;51.938;4.348;2022-10-14T08:04:25;101472.81;;;16.14;84.30
17362;BME280;8798;51.938;4.348;2022-10-14T08:06:56;101468.06;;;16.16;84.24
17362;BME280;8798;51.938;4.348;2022-10-14T08:09:25;101475.19;;;16.17;84.56
17362;BME280;8798;51.938;4.348;2022-10-14T08:11:59;101466.03;;;16.18;84.41
17362;BME280;8798;51.938;4.348;2022-10-14T08:14:33;101471.28;;;16.20;84.72
17362;BME280;8798;51.938;4.348;2022-10-14T08:17:05;101471.09;;;16.21;84.88
17362;BME280;8798;51.938;4.348;2022-10-14T08:19:38;101484.31;;;16.24;84.92
17362;BME280;8798;51.938;4.348;2022-10-14T08:22:13;101493.78;;;16.28;84.78
17362;BME280;8798;51.938;4.348;2022-10-14T08:24:45;101503.44;;;16.31;84.79
17362;BME280;8798;51.938;4.348;2022-10-14T08:27:16;101502.44;;;16.32;84.92
17362;BME280;8798;51.938;4.348;2022-10-14T08:29:45;101494.13;;;16.33;84.80
17362;BME280;8798;51.938;4.348;2022-10-14T08:32:16;101499.53;;;16.33;85.18
17362;BME280;8798;51.938;4.348;2022-10-14T08:34:46;101485.16;;;16.33;84.97
17362;BME280;8798;51.938;4.348;2022-10-14T08:37:17;101492.25;;;16.34;85.07
17362;BME280;8798;51.938;4.348;2022-10-14T08:39:45;101492.09;;;16.36;85.05
17362;BME280;8798;51.938;4.348;2022-10-14T08:42:37;101486.66;;;16.36;84.91
17362;BME280;8798;51.938;4.348;2022-10-14T08:45:18;101479.56;;;16.34;84.92
17362;BME280;8798;51.938;4.348;2022-10-14T08:47:56;101473.09;;;16.36;85.34
17362;BME280;8798;51.938;4.348;2022-10-14T08:50:39;101458.88;;;16.33;85.22
17362;BME280;8798;51.938;4.348;2022-10-14T08:53:17;101452.59;;;16.33;85.56
17362;BME280;8798;51.938;4.348;2022-10-14T08:55:57;101439.03;;;16.33;85.45
17362;BME280;8798;51.938;4.348;2022-10-14T08:58:39;101447.03;;;16.34;85.37
17362;BME280;8798;51.938;4.348;2022-10-14T09:01:20;101430.06;;;16.32;85.57
17362;BME280;8798;51.938;4.348;2022-10-14T09:03:56;101426.53;;;16.32;85.61
17362;BME280;8798;51.938;4.348;2022-10-14T09:06:30;101426.34;;;16.33;85.45
17362;BME280;8798;51.938;4.348;2022-10-14T09:09:19;101422.78;;;16.33;85.47
17362;BME280;8798;51.938;4.348;2022-10-14T09:11:56;101434.31;;;16.35;85.53
17362;BME280;8798;51.938;4.348;2022-10-14T09:14:33;101431.59;;;16.35;85.55
17362;BME280;8798;51.938;4.348;2022-10-14T09:17:16;101441.03;;;16.39;85.83
17362;BME280;8798;51.938;4.348;2022-10-14T09:20:12;101443.44;;;16.42;85.79
17362;BME280;8798;51.938;4.348;2022-10-14T09:23:01;101445.78;;;16.45;85.58
17362;BME280;8798;51.938;4.348;2022-10-14T09:25:37;101446.63;;;16.46;85.87
17362;BME280;8798;51.938;4.348;2022-10-14T09:28:12;101439.16;;;16.48;85.62
17362;BME280;8798;51.938;4.348;2022-10-14T09:30:46;101459.50;;;16.52;85.91
17362;BME280;8798;51.938;4.348;2022-10-14T09:33:17;101471.00;;;16.54;85.89
17362;BME280;8798;51.938;4.348;2022-10-14T09:36:14;101485.91;;;16.58;86.27
17362;BME280;8798;51.938;4.348;2022-10-14T09:38:46;101479.44;;;16.59;85.64
17362;BME280;8798;51.938;4.348;2022-10-14T09:41:25;101472.19;;;16.60;85.96
17362;BME280;8798;51.938;4.348;2022-10-14T09:44:16;101460.66;;;16.58;86.22
17362;BME280;8798;51.938;4.348;2022-10-14T09:47:10;101456.06;;;16.58;85.98
17362;BME280;8798;51.938;4.348;2022-10-14T09:49:46;101457.75;;;16.59;86.15
17362;BME280;8798;51.938;4.348;2022-10-14T09:52:20;101453.00;;;16.61;85.96
17362;BME280;8798;51.938;4.348;2022-10-14T09:54:54;101467.22;;;16.63;86.46
17362;BME280;8798;51.938;4.348;2022-10-14T09:57:25;101456.38;;;16.63;86.27
17362;BME280;8798;51.938;4.348;2022-10-14T09:59:55;101457.06;;;16.65;85.98
17362;BME280;8798;51.938;4.348;2022-10-14T10:02:39;101447.25;;;16.64;86.17
17362;BME280;8798;51.938;4.348;2022-10-14T10:05:22;101445.16;;;16.66;86.21
17362;BME280;8798;51.938;4.348;2022-10-14T10:08:04;101456.03;;;16.66;86.36
17362;BME280;8798;51.938;4.348;2022-10-14T10:11:00;101438.91;;;16.66;86.44
17362;BME280;8798;51.938;4.348;2022-10-14T10:13:38;101418.59;;;16.62;86.45
17362;BME280;8798;51.938;4.348;2022-10-14T10:16:26;101406.19;;;16.59;86.36
17362;BME280;8798;51.938;4.348;2022-10-14T10:19:19;101398.72;;;16.61;86.52
17362;BME280;8798;51.938;4.348;2022-10-14T10:22:18;101389.75;;;16.61;86.59
17362;BME280;8798;51.938;4.348;2022-10-14T10:25:17;101379.28;;;16.58;86.57
17362;BME280;8798;51.938;4.348;2022-10-14T10:27:46;101373.84;;;16.58;86.45
17362;BME280;8798;51.938;4.348;2022-10-14T10:30:29;101378.06;;;16.60;86.57
17362;BME280;8798;51.938;4.348;2022-10-14T10:33:18;101394.81;;;16.64;86.80
17362;BME280;8798;51.938;4.348;2022-10-14T10:36:16;101402.63;;;16.67;86.73
17362;BME280;8798;51.938;4.348;2022-10-14T10:38:56;101386.50;;;16.65;86.68
17362;BME280;8798;51.938;4.348;2022-10-14T10:41:53;101410.41;;;16.70;86.93
17362;BME280;8798;51.938;4.348;2022-10-14T10:44:52;101394.13;;;16.70;86.78
17362;BME280;8798;51.938;4.348;2022-10-14T10:47:32;101413.59;;;16.73;86.97
17362;BME280;8798;51.938;4.348;2022-10-14T10:50:20;101420.53;;;16.76;86.69
17362;BME280;8798;51.938;4.348;2022-10-14T10:53:25;101415.97;;;16.76;87.04
17362;BME280;8798;51.938;4.348;2022-10-14T10:56:10;101405.13;;;16.76;86.98
17362;BME280;8798;51.938;4.348;2022-10-14T10:58:53;101409.50;;;16.77;86.67
17362;BME280;8798;51.938;4.348;2022-10-14T11:01:46;101411.06;;;16.80;87.23
17362;BME280;8798;51.938;4.348;2022-10-14T11:04:28;101406.66;;;16.79;86.91
17362;BME280;8798;51.938;4.348;2022-10-14T11:07:10;101401.88;;;16.81;87.00
17362;BME280;8798;51.938;4.348;2022-10-14T11:10:17;101409.84;;;16.83;87.17
17362;BME280;8798;51.938;4.348;2022-10-14T11:13:20;101393.56;;;16.83;86.97
17362;BME280;8798;51.938;4.348;2022-10-14T11:15:59;101394.41;;;16.83;87.02
17362;BME280;8798;51.938;4.348;2022-10-14T11:18:44;101389.81;;;16.84;86.98
17362;BME280;8798;51.938;4.348;2022-10-14T11:21:21;101398.63;;;16.86;87.15
17362;BME280;8798;51.938;4.348;2022-10-14T11:24:08;101407.94;;;16.91;86.82
17362;BME280;8798;51.938;4.348;2022-10-14T11:27:00;101431.63;;;16.97;87.19
17362;BME280;8798;51.938;4.348;2022-10-14T11:30:00;101469.59;;;17.06;86.99
17362;BME280;8798;51.938;4.348;2022-10-14T11:32:43;101491.44;;;17.12;87.00
17362;BME280;8798;51.938;4.348;2022-10-14T11:35:22;101509.75;;;17.18;86.89
17362;BME280;8798;51.938;4.348;2022-10-14T11:38:06;101523.63;;;17.24;87.20
17362;BME280;8798;51.938;4.348;2022-10-14T11:40:48;101528.88;;;17.25;87.10
17362;BME280;8798;51.938;4.348;2022-10-14T11:43:31;101534.78;;;17.29;87.18
17362;BME280;8798;51.938;4.348;2022-10-14T11:46:08;101539.03;;;17.31;86.94
17362;BME280;8798;51.938;4.348;2022-10-14T11:48:49;101532.38;;;17.34;87.02
17362;BME280;8798;51.938;4.348;2022-10-14T11:51:26;101538.50;;;17.36;87.30
17362;BME280;8798;51.938;4.348;2022-10-14T11:54:10;101533.06;;;17.36;87.22
17362;BME280;8798;51.938;4.348;2022-10-14T11:56:46;101526.59;;;17.37;86.94
17362;BME280;8798;51.938;4.348;2022-10-14T11:59:38;101517.59;;;17.36;87.27
17362;BME280;8798;51.938;4.348;2022-10-14T12:02:24;101498.75;;;17.35;87.27
17362;BME280;8798;51.938;4.348;2022-10-14T12:05:05;101525.03;;;17.42;87.12
17362;BME280;8798;51.938;4.348;2022-10-14T12:07:38;101557.38;;;17.52;87.20
17362;BME280;8798;51.938;4.348;2022-10-14T12:10:19;101581.97;;;17.59;87.22
17362;BME280;8798;51.938;4.348;2022-10-14T12:12:55;101605.34;;;17.68;87.21
17362;BME280;8798;51.938;4.348;2022-10-14T12:15:27;101639.44;;;17.79;87.48
17362;BME280;8798;51.938;4.348;2022-10-14T12:18:03;101680.69;;;17.91;87.30
17362;BME280;8798;51.938;4.348;2022-10-14T12:20:39;101697.28;;;17.96;87.34
17362;BME280;8798;51.938;4.348;2022-10-14T12:23:23;101727.97;;;18.04;87.19
17362;BME280;8798;51.938;4.348;2022-10-14T12:26:03;101761.22;;;18.15;87.42
17362;BME280;8798;51.938;4.348;2022-10-14T12:28:36;101765.28;;;18.19;87.40
17362;BME280;8798;51.938;4.348;2022-10-14T12:31:34;101769.38;;;18.23;87.22
17362;BME280;8798;51.938;4.348;2022-10-14T12:34:36;101753.03;;;18.23;87.28
17362;BME280;8798;51.938;4.348;2022-10-14T12:40:29;101703.78;;;18.18;87.12
17362;BME280;8798;51.938;4.348;2022-10-14T12:43:22;101685.75;;;18.17;87.03
17362;BME280;8798;51.938;4.348;2022-10-14T12:46:10;101675.72;;;18.17;86.98
17362;BME280;8798;51.938;4.348;2022-10-14T12:48:49;101645.50;;;18.12;87.29
17362;BME280;8798;51.938;4.348;2022-10-14T12:51:27;101607.78;;;18.09;86.93
17362;BME280;8798;51.938;4.348;2022-10-14T12:54:12;101593.72;;;18.05;87.34
17362;BME280;8798;51.938;4.348;2022-10-14T12:56:52;101544.84;;;17.97;87.40
17362;BME280;8798;51.938;4.348;2022-10-14T12:59:27;101481.94;;;17.86;86.93
17362;BME280;8798;51.938;4.348;2022-10-14T13:01:58;101420.66;;;17.75;87.24
17362;BME280;8798;51.938;4.348;2022-10-14T13:04:46;101381.66;;;17.68;86.90
17362;BME280;8798;51.938;4.348;2022-10-14T13:07:29;101377.94;;;17.69;87.10
17362;BME280;8798;51.938;4.348;2022-10-14T13:10:30;101403.34;;;17.76;87.15
17362;BME280;8798;51.938;4.348;2022-10-14T13:16:54;101425.19;;;17.82;87.09
17362;BME280;8798;51.938;4.348;2022-10-14T13:19:45;101450.44;;;17.91;86.83
17362;BME280;8798;51.938;4.348;2022-10-14T13:22:36;101471.25;;;17.99;87.11
17362;BME280;8798;51.938;4.348;2022-10-14T13:25:14;101490.56;;;18.04;86.92
17362;BME280;8798;51.938;4.348;2022-10-14T13:30:54;101450.34;;;17.99;86.73
17362;BME280;8798;51.938;4.348;2022-10-14T13:33:39;101444.06;;;17.99;87.13
17362;BME280;8798;51.938;4.348;2022-10-14T13:36:23;101434.69;;;18.01;87.31
17362;BME280;8798;51.938;4.348;2022-10-14T13:38:58;101454.19;;;18.05;86.86
17362;BME280;8798;51.938;4.348;2022-10-14T13:41:36;101457.56;;;18.07;87.00
17362;BME280;8798;51.938;4.348;2022-10-14T13:44:09;101440.59;;;18.05;86.80
17362;BME280;8798;51.938;4.348;2022-10-14T13:46:46;101427.19;;;18.03;86.76
17362;BME280;8798;51.938;4.348;2022-10-14T13:49:18;101416.31;;;18.03;86.62
17362;BME280;8798;51.938;4.348;2022-10-14T13:51:52;101413.59;;;18.03;86.87
17362;BME280;8798;51.938;4.348;2022-10-14T13:54:28;101391.19;;;18.01;86.75
17362;BME280;8798;51.938;4.348;2022-10-14T13:57:00;101361.00;;;17.96;86.58
17362;BME280;8798;51.938;4.348;2022-10-14T13:59:58;101314.91;;;17.88;86.54